createdAt,value
2019-02-07T00:02:12.398Z,28.13
2019-02-07T00:05:00.976Z,29.07
2019-02-07T00:07:41.746Z,29.87
2019-02-07T00:10:22.964Z,32.00
2019-02-07T00:13:04.570Z,30.10
2019-02-07T00:15:45.695Z,27.67
2019-02-07T00:18:27.183Z,28.67
2019-02-07T00:21:08.807Z,25.67
2019-02-07T00:23:50.356Z,27.30
2019-02-07T00:26:31.910Z,28.83
2019-02-07T00:29:12.920Z,28.83
2019-02-07T00:31:53.583Z,27.50
2019-02-07T00:34:34.302Z,31.23
2019-02-07T00:37:13.499Z,27.90
2019-02-07T00:39:54.794Z,29.23
2019-02-07T00:42:36.313Z,31.40
2019-02-07T00:45:17.892Z,27.10
2019-02-07T00:47:59.301Z,29.03
2019-02-07T00:50:40.753Z,28.47
2019-02-07T00:53:22.367Z,28.27
2019-02-07T00:56:03.456Z,26.13
2019-02-07T00:58:44.738Z,28.83
2019-02-07T01:01:25.540Z,27.10
2019-02-07T01:04:06.660Z,28.23
2019-02-07T01:06:48.045Z,27.93
2019-02-07T01:09:29.665Z,28.43
2019-02-07T01:12:10.585Z,25.20
2019-02-07T01:15:01.665Z,29.10
2019-02-07T01:17:35.244Z,31.13
2019-02-07T01:20:16.805Z,27.23
2019-02-07T01:22:57.570Z,29.53
2019-02-07T01:25:39.106Z,28.63
2019-02-07T01:28:20.731Z,30.70
2019-02-07T01:31:02.238Z,31.47
2019-02-07T01:33:43.665Z,27.83
2019-02-07T01:36:25.144Z,28.93
2019-02-07T01:39:06.242Z,28.97
2019-02-07T01:41:47.775Z,29.00
2019-02-07T01:44:29.213Z,31.17
2019-02-07T01:47:10.702Z,30.20
2019-02-07T01:49:51.405Z,27.13
2019-02-07T01:52:32.778Z,27.73
2019-02-07T01:55:14.355Z,29.37
2019-02-07T01:57:55.562Z,28.73
2019-02-07T02:00:35.401Z,24.93
2019-02-07T02:03:23.992Z,29.40
2019-02-07T02:06:04.854Z,28.43
2019-02-07T02:08:45.445Z,28.13
2019-02-07T02:11:26.825Z,26.40
2019-02-07T02:14:08.022Z,29.77
2019-02-07T02:16:49.545Z,26.80
2019-02-07T02:19:30.745Z,27.10
2019-02-07T02:22:12.082Z,31.47
2019-02-07T02:24:53.381Z,27.80
2019-02-07T02:27:34.702Z,27.20
2019-02-07T02:30:15.938Z,30.97
2019-02-07T02:32:57.327Z,26.53
2019-02-07T02:35:38.752Z,29.20
2019-02-07T02:38:19.541Z,25.77
2019-02-07T02:41:00.934Z,30.37
2019-02-07T02:43:41.607Z,28.57
2019-02-07T02:46:23.009Z,28.30
2019-02-07T02:49:04.510Z,28.40
2019-02-07T02:51:45.682Z,28.83
2019-02-07T02:57:36.492Z,27.83
2019-02-07T03:00:21.222Z,28.07
2019-02-07T03:03:20.762Z,27.57
2019-02-07T03:09:34.568Z,28.20
2019-02-07T03:12:34.572Z,28.57
2019-02-07T03:15:34.860Z,25.10
2019-02-07T03:18:34.515Z,26.43
2019-02-07T03:24:37.264Z,28.10
2019-02-07T03:27:37.014Z,29.60
2019-02-07T03:30:40.352Z,28.47
2019-02-07T03:33:41.609Z,26.10
2019-02-07T03:36:42.030Z,28.17
2019-02-07T03:39:42.592Z,24.17
2019-02-07T03:42:42.784Z,28.23
2019-02-07T03:45:45.372Z,24.40
2019-02-07T03:48:47.773Z,27.20
2019-02-07T03:51:46.673Z,28.30
2019-02-07T03:54:49.924Z,25.00
2019-02-07T03:57:51.819Z,22.47
2019-02-07T04:00:51.754Z,22.97
2019-02-07T04:07:08.817Z,28.83
2019-02-07T04:10:26.831Z,27.37
2019-02-07T04:16:20.066Z,25.93
2019-02-07T04:19:20.561Z,27.80
2019-02-07T04:22:20.276Z,26.23
2019-02-07T04:25:19.952Z,23.60
2019-02-07T04:28:20.553Z,28.13
2019-02-07T04:31:23.662Z,29.27
2019-02-07T04:34:23.546Z,26.93
2019-02-07T04:40:42.263Z,26.00
2019-02-07T04:43:48.966Z,28.43
2019-02-07T04:46:49.073Z,26.50
2019-02-07T04:49:49.345Z,28.87
2019-02-07T04:52:44.497Z,27.20
2019-02-07T04:55:44.389Z,28.60
2019-02-07T04:58:44.578Z,29.63
2019-02-07T05:01:44.309Z,24.93
2019-02-07T05:04:41.306Z,29.30
2019-02-07T05:07:47.666Z,24.93
2019-02-07T05:10:49.760Z,26.50
2019-02-07T05:13:51.625Z,28.23
2019-02-07T05:16:51.702Z,27.07
2019-02-07T05:19:52.033Z,26.00
2019-02-07T05:22:53.392Z,30.70
2019-02-07T05:26:00.809Z,24.17
2019-02-07T05:29:00.387Z,27.53
2019-02-07T05:32:00.928Z,24.40
2019-02-07T05:35:01.027Z,26.87
2019-02-07T05:41:21.081Z,22.97
2019-02-07T05:47:40.414Z,27.00
2019-02-07T05:50:35.778Z,25.63
2019-02-07T05:53:40.162Z,26.97
2019-02-07T05:56:37.721Z,30.33
2019-02-07T05:59:40.687Z,28.17
2019-02-07T06:02:28.458Z,26.40
2019-02-07T06:05:27.211Z,28.67
2019-02-07T06:08:34.685Z,28.30
2019-02-07T06:11:35.291Z,25.73
2019-02-07T06:14:37.047Z,28.60
2019-02-07T06:17:37.107Z,29.70
2019-02-07T06:20:37.391Z,27.27
2019-02-07T06:23:40.608Z,28.93
2019-02-07T06:26:42.666Z,27.50
2019-02-07T06:29:36.983Z,28.97
2019-02-07T06:32:37.097Z,32.50
2019-02-07T06:35:37.431Z,26.70
2019-02-07T06:38:43.608Z,26.30
2019-02-07T06:41:43.380Z,26.67
2019-02-07T06:44:50.871Z,29.33
2019-02-07T06:47:51.192Z,27.37
2019-02-07T06:50:50.888Z,26.03
2019-02-07T06:53:50.521Z,26.20
2019-02-07T06:56:57.096Z,27.67
2019-02-07T07:02:55.299Z,24.97
2019-02-07T07:05:55.640Z,25.30
2019-02-07T07:08:59.904Z,27.53
2019-02-07T07:12:06.949Z,28.00
2019-02-07T07:15:07.202Z,24.77
2019-02-07T07:18:06.146Z,28.47
2019-02-07T07:21:05.852Z,28.57
2019-02-07T07:24:05.556Z,23.23
2019-02-07T07:27:05.224Z,27.93
2019-02-07T07:30:12.641Z,21.37
2019-02-07T07:33:15.720Z,22.47
2019-02-07T07:36:08.524Z,26.30
2019-02-07T07:39:11.112Z,22.67
2019-02-07T07:42:11.521Z,23.83
2019-02-07T07:45:11.752Z,22.47
2019-02-07T07:48:17.605Z,23.20
2019-02-07T07:51:04.737Z,19.83
2019-02-07T07:54:02.823Z,24.80
2019-02-07T07:57:05.859Z,21.43
2019-02-07T08:00:08.872Z,22.87
2019-02-07T08:03:15.420Z,27.00
2019-02-07T08:06:15.627Z,30.03
2019-02-07T08:09:15.952Z,22.93
2019-02-07T08:15:28.083Z,19.07
2019-02-07T08:18:35.548Z,20.50
2019-02-07T08:21:35.246Z,22.03
2019-02-07T08:24:39.638Z,21.57
2019-02-07T08:27:39.586Z,21.67
2019-02-07T08:30:38.810Z,23.03
2019-02-07T08:33:39.357Z,21.47
2019-02-07T08:36:40.487Z,22.77
2019-02-07T08:39:32.154Z,20.97
2019-02-07T08:42:32.434Z,22.07
2019-02-07T08:45:32.809Z,21.77
2019-02-07T08:48:35.448Z,20.30
2019-02-07T08:51:38.366Z,20.60
2019-02-07T09:33:32.277Z,17.33
2019-02-07T09:36:38.485Z,21.17
2019-02-07T09:39:38.442Z,20.50
2019-02-07T09:42:29.890Z,17.83
2019-02-07T09:45:29.659Z,18.53
2019-02-07T09:51:33.733Z,17.60
2019-02-07T09:54:27.161Z,16.47
2019-02-07T09:57:30.060Z,16.50
2019-02-07T10:00:29.710Z,18.90
2019-02-07T10:03:32.836Z,17.40
2019-02-07T10:06:32.722Z,12.70
2019-02-07T10:09:32.861Z,14.33
2019-02-07T10:18:52.135Z,15.57
2019-02-07T10:21:46.296Z,13.90
2019-02-07T10:24:45.939Z,13.07
2019-02-07T10:27:39.285Z,15.00
2019-02-07T10:30:31.776Z,16.10
2019-02-07T10:33:31.377Z,12.93
2019-02-07T10:36:27.593Z,15.50
2019-02-07T10:39:27.651Z,14.33
2019-02-07T10:42:09.389Z,14.13
2019-02-07T10:45:08.361Z,14.83
2019-02-07T10:48:08.293Z,14.83
2019-02-07T10:51:07.848Z,17.97
2019-02-07T10:57:24.641Z,14.43
2019-02-07T11:00:30.531Z,12.23
2019-02-07T11:03:35.008Z,15.57
2019-02-07T11:06:27.812Z,15.57
2019-02-07T11:09:29.525Z,12.37
2019-02-07T11:12:32.425Z,15.53
2019-02-07T11:15:32.225Z,10.27
2019-02-07T11:18:34.989Z,12.07
2019-02-07T11:21:35.300Z,14.73
2019-02-07T11:24:29.601Z,15.77
2019-02-07T11:27:29.925Z,12.97
2019-02-07T11:30:31.005Z,13.33
2019-02-07T11:33:24.373Z,11.53
2019-02-07T11:36:24.358Z,11.90
2019-02-07T11:39:29.694Z,10.93
2019-02-07T11:42:20.510Z,12.97
2019-02-07T11:45:14.876Z,11.40
2019-02-07T11:48:15.361Z,11.47
2019-02-07T11:51:13.266Z,11.40
2019-02-07T11:54:13.006Z,11.37
2019-02-07T11:57:19.366Z,12.00
2019-02-07T12:00:11.286Z,10.80
2019-02-07T12:03:11.764Z,11.00
2019-02-07T12:06:03.043Z,12.53
2019-02-07T12:09:06.304Z,11.53
2019-02-07T12:12:04.556Z,10.17
2019-02-07T12:15:04.297Z,10.70
2019-02-07T12:17:58.104Z,9.90
2019-02-07T12:20:58.338Z,8.80
2019-02-07T12:23:57.740Z,8.53
2019-02-07T12:27:00.866Z,8.43
2019-02-07T12:30:01.266Z,8.00
2019-02-07T12:33:01.099Z,8.90
2019-02-07T12:35:53.636Z,9.17
2019-02-07T12:38:59.605Z,11.83
2019-02-07T12:41:49.358Z,11.13
2019-02-07T12:44:56.812Z,10.80
2019-02-07T12:47:57.155Z,9.93
2019-02-07T12:50:57.609Z,11.43
2019-02-07T12:53:59.015Z,12.50
2019-02-07T12:57:08.111Z,11.40
2019-02-07T13:00:07.914Z,9.37
2019-02-07T13:03:08.355Z,11.63
2019-02-07T13:06:02.642Z,13.23
2019-02-07T13:09:10.112Z,11.33
2019-02-07T13:12:12.944Z,13.60
2019-02-07T13:15:13.557Z,13.80
2019-02-07T13:21:27.212Z,11.80
2019-02-07T13:24:33.210Z,12.90
2019-02-07T13:27:27.254Z,10.67
2019-02-07T13:30:30.433Z,12.00
2019-02-07T13:33:30.015Z,12.63
2019-02-07T13:36:20.717Z,11.50
2019-02-07T13:39:20.293Z,8.73
2019-02-07T13:42:26.802Z,8.53
2019-02-07T13:45:26.525Z,11.47
2019-02-07T13:48:21.130Z,15.90
2019-02-07T13:51:21.260Z,14.30
2019-02-07T13:54:21.610Z,11.43
2019-02-07T13:57:22.031Z,9.63
2019-02-07T14:00:18.787Z,12.47
2019-02-07T14:03:18.438Z,11.80
2019-02-07T14:06:19.058Z,12.40
2019-02-07T14:09:16.762Z,10.47
2019-02-07T14:12:18.866Z,12.40
2019-02-07T14:15:20.434Z,15.50
2019-02-07T14:18:27.918Z,12.17
2019-02-07T14:21:27.990Z,10.33
2019-02-07T14:24:19.752Z,11.77
2019-02-07T14:27:19.648Z,12.33
2019-02-07T14:30:11.054Z,13.17
2019-02-07T14:33:11.416Z,12.70
2019-02-07T14:36:00.756Z,13.50
2019-02-07T14:38:49.140Z,14.47
2019-02-07T14:41:54.964Z,18.00
2019-02-07T14:44:55.255Z,12.87
2019-02-07T14:47:36.682Z,8.90
2019-02-07T14:50:16.667Z,13.23
2019-02-07T14:56:05.187Z,13.67
2019-02-07T14:58:46.398Z,13.53
2019-02-07T15:01:27.304Z,15.37
2019-02-07T15:04:08.641Z,15.53
2019-02-07T15:06:49.682Z,14.63
2019-02-07T15:09:30.836Z,14.70
2019-02-07T15:12:12.152Z,15.40
2019-02-07T15:14:53.491Z,15.20
2019-02-07T15:17:34.948Z,16.30
2019-02-07T15:20:25.777Z,15.00
2019-02-07T15:22:58.875Z,16.23
2019-02-07T15:25:40.371Z,15.60
2019-02-07T15:28:21.106Z,15.50
2019-02-07T15:31:02.130Z,13.80
2019-02-07T15:33:43.374Z,17.30
2019-02-07T15:36:23.010Z,16.93
2019-02-07T15:39:05.065Z,18.33
2019-02-07T15:41:46.292Z,20.67
2019-02-07T15:44:27.314Z,19.90
2019-02-07T15:47:09.208Z,19.93
2019-02-07T15:49:49.951Z,22.33
2019-02-07T15:52:30.644Z,21.27
2019-02-07T15:55:11.739Z,21.37
2019-02-07T16:01:24.888Z,22.33
2019-02-07T16:04:25.386Z,26.13
2019-02-07T16:07:06.321Z,20.80
2019-02-07T16:09:47.735Z,20.53
2019-02-07T16:12:28.607Z,22.37
2019-02-07T16:15:09.894Z,20.83
2019-02-07T16:17:51.285Z,23.93
2019-02-07T16:20:32.828Z,56.83
2019-02-07T16:23:14.148Z,24.07
2019-02-07T16:25:55.702Z,25.57
2019-02-07T16:28:37.146Z,22.40
2019-02-07T16:31:18.742Z,24.33
2019-02-07T16:34:00.344Z,25.03
2019-02-07T16:36:42.356Z,24.90
2019-02-07T16:39:23.165Z,22.93
2019-02-07T16:42:06.124Z,21.50
2019-02-07T16:44:47.280Z,22.53
2019-02-07T16:47:26.780Z,22.10
2019-02-07T16:50:07.741Z,24.57
2019-02-07T16:52:49.207Z,24.10
2019-02-07T16:55:30.467Z,26.10
2019-02-07T16:58:11.976Z,21.00
2019-02-07T17:00:53.536Z,20.00
2019-02-07T17:03:35.187Z,21.27
2019-02-07T17:06:16.661Z,22.33
2019-02-07T17:08:56.920Z,23.50
2019-02-07T17:11:37.288Z,25.87
2019-02-07T17:14:15.888Z,20.77
2019-02-07T23:43:27.592Z,44.10
2019-02-07T23:46:07.906Z,41.00
2019-02-07T23:48:48.201Z,38.17
2019-02-07T23:51:28.500Z,40.40
2019-02-07T23:54:07.021Z,41.43
2019-02-07T23:56:45.785Z,45.53
